createdAt,value
2023-02-05T00:03:58.439Z,7.60
2023-02-05T00:08:57.562Z,5.40
2023-02-05T00:13:56.657Z,8.13
2023-02-05T00:18:58.239Z,8.57
2023-02-05T00:23:57.070Z,7.93
2023-02-05T00:28:55.813Z,7.87
2023-02-05T00:33:56.051Z,7.00
2023-02-05T00:38:55.151Z,7.37
2023-02-05T00:43:53.914Z,7.57
2023-02-05T00:48:52.645Z,6.23
2023-02-05T00:53:52.960Z,7.20
2023-02-05T00:58:51.770Z,6.80
2023-02-05T01:03:50.657Z,5.53
2023-02-05T01:08:49.589Z,5.70
2023-02-05T01:13:49.808Z,4.37
2023-02-05T01:18:48.634Z,4.77
2023-02-05T01:23:47.417Z,4.73
2023-02-05T01:28:47.195Z,5.50
2023-02-05T01:33:47.519Z,4.00
2023-02-05T01:38:46.360Z,4.20
2023-02-05T01:43:45.170Z,4.20
2023-02-05T01:48:47.910Z,3.97
2023-02-05T01:53:49.765Z,4.80
2023-02-05T01:58:53.629Z,3.93
2023-02-05T02:08:53.866Z,4.43
2023-02-05T02:13:56.352Z,4.60
2023-02-05T02:18:55.913Z,5.43
2023-02-05T02:24:13.930Z,4.13
2023-02-05T02:29:19.676Z,3.80
2023-02-05T02:34:22.236Z,3.27
2023-02-05T02:39:26.941Z,3.43
2023-02-05T02:44:34.792Z,5.40
2023-02-05T02:49:39.370Z,4.03
2023-02-05T02:54:42.472Z,4.53
2023-02-05T02:59:47.293Z,4.27
2023-02-05T03:04:53.206Z,4.83
2023-02-05T03:10:00.450Z,3.40
2023-02-05T03:15:01.266Z,3.57
2023-02-05T03:20:05.168Z,3.40
2023-02-05T03:25:06.438Z,3.30
2023-02-05T03:30:10.293Z,2.80
2023-02-05T03:35:22.266Z,2.53
2023-02-05T03:45:41.004Z,3.00
2023-02-05T03:50:45.169Z,2.47
2023-02-05T03:55:49.264Z,2.70
2023-02-05T04:00:50.369Z,3.57
2023-02-05T04:05:50.095Z,2.33
2023-02-05T04:10:50.912Z,2.43
2023-02-05T04:15:52.274Z,2.83
2023-02-05T04:20:51.250Z,3.07
2023-02-05T04:25:55.290Z,3.15
2023-02-05T04:31:03.147Z,2.80
2023-02-05T04:36:05.743Z,2.25
2023-02-05T04:41:05.030Z,2.47
2023-02-05T04:46:08.836Z,2.83
2023-02-05T04:51:08.952Z,2.85
2023-02-05T04:56:09.256Z,2.50
2023-02-05T05:01:15.682Z,1.90
2023-02-05T05:06:15.522Z,2.50
2023-02-05T05:11:16.098Z,2.60
2023-02-05T05:16:16.697Z,2.87
2023-02-05T05:21:15.592Z,3.10
2023-02-05T05:26:14.772Z,3.20
2023-02-05T05:31:19.799Z,2.80
2023-02-05T05:36:19.217Z,2.87
2023-02-05T05:41:39.264Z,3.27
2023-02-05T05:46:41.252Z,2.70
2023-02-05T05:51:40.206Z,3.27
2023-02-05T05:56:39.181Z,3.03
2023-02-05T06:01:39.690Z,3.30
2023-02-05T06:06:38.468Z,2.77
2023-02-05T06:11:37.246Z,2.57
2023-02-05T06:16:36.154Z,2.40
2023-02-05T06:21:36.541Z,3.47
2023-02-05T06:26:35.331Z,2.67
2023-02-05T06:31:34.374Z,3.20
2023-02-05T06:36:33.299Z,3.27
2023-02-05T06:41:33.472Z,2.73
2023-02-05T06:46:32.829Z,2.73
2023-02-05T06:51:31.839Z,2.77
2023-02-05T06:56:30.711Z,3.30
2023-02-05T07:01:31.196Z,3.50
2023-02-05T07:06:30.308Z,4.00
2023-02-05T07:11:29.220Z,4.60
2023-02-05T07:16:28.262Z,3.90
2023-02-05T07:21:28.633Z,3.60
2023-02-05T07:26:27.517Z,3.73
2023-02-05T07:31:27.086Z,3.50
2023-02-05T07:36:26.079Z,3.70
2023-02-05T07:41:29.649Z,4.83
2023-02-05T07:46:28.577Z,2.75
2023-02-05T07:51:27.770Z,3.13
2023-02-05T07:56:28.907Z,4.20
2023-02-05T08:01:29.079Z,3.90
2023-02-05T08:06:30.822Z,3.33
2023-02-05T08:11:32.605Z,3.60
2023-02-05T08:16:37.025Z,3.03
2023-02-05T08:21:36.506Z,4.17
2023-02-05T08:26:36.821Z,3.60
2023-02-05T08:31:35.995Z,3.37
2023-02-05T08:36:35.009Z,4.20
2023-02-05T08:41:33.952Z,4.23
2023-02-05T08:46:48.898Z,3.67
2023-02-05T08:51:49.482Z,3.00
2023-02-05T08:56:51.318Z,3.17
2023-02-05T09:01:52.507Z,4.70
2023-02-05T09:06:51.423Z,3.77
2023-02-05T09:11:50.661Z,2.93
2023-02-05T09:16:49.763Z,3.90
2023-02-05T09:21:50.049Z,3.83
2023-02-05T09:26:49.592Z,3.00
2023-02-05T09:31:49.109Z,2.87
2023-02-05T09:36:49.738Z,3.77
2023-02-05T09:41:57.103Z,3.17
2023-02-05T09:47:05.802Z,2.80
2023-02-05T09:52:13.621Z,3.45
2023-02-05T09:57:17.643Z,2.78
2023-02-05T10:02:26.444Z,4.50
2023-02-05T10:07:38.610Z,2.97
2023-02-05T10:12:49.591Z,2.38
2023-02-05T10:18:01.450Z,2.75
2023-02-05T10:23:15.351Z,3.10
2023-02-05T10:33:42.348Z,2.80
2023-02-05T10:38:45.258Z,2.78
2023-02-05T10:43:50.586Z,2.70
2023-02-05T10:48:55.764Z,4.80
2023-02-05T10:53:56.319Z,3.20
2023-02-05T10:58:56.866Z,3.30
2023-02-05T11:04:01.728Z,4.55
2023-02-05T11:09:30.252Z,3.95
2023-02-05T11:14:42.145Z,6.45
2023-02-05T11:19:41.443Z,5.40
2023-02-05T11:24:42.771Z,4.20
2023-02-05T11:29:42.104Z,5.40
2023-02-05T11:34:41.132Z,5.05
2023-02-05T11:39:42.496Z,4.53
2023-02-05T11:44:51.397Z,3.88
2023-02-05T11:49:52.523Z,4.03
2023-02-05T11:54:53.198Z,5.78
2023-02-05T11:59:57.590Z,3.97
2023-02-05T12:05:02.305Z,4.38
2023-02-05T12:10:03.227Z,4.47
2023-02-05T12:15:11.906Z,4.95
2023-02-05T12:20:22.783Z,6.88
2023-02-05T12:25:30.004Z,5.05
2023-02-05T12:31:00.313Z,4.55
2023-02-05T12:36:12.608Z,5.00
2023-02-05T12:41:24.819Z,6.32
2023-02-05T12:46:45.278Z,3.83
2023-02-05T12:51:54.235Z,10.43
2023-02-05T12:57:02.747Z,12.90
2023-02-05T13:02:12.083Z,7.03
2023-02-05T13:07:20.046Z,7.28
2023-02-05T13:12:28.348Z,5.40
2023-02-05T13:17:32.888Z,5.53
2023-02-05T13:23:08.547Z,6.90
2023-02-05T13:28:42.731Z,6.40
2023-02-05T13:33:41.946Z,8.97
2023-02-05T13:38:57.571Z,5.90
2023-02-05T13:44:17.656Z,4.80
2023-02-05T13:49:44.137Z,5.70
2023-02-05T13:55:08.748Z,7.27
2023-02-05T14:00:15.573Z,4.97
2023-02-05T14:05:16.198Z,5.90
2023-02-05T14:10:28.300Z,6.07
2023-02-05T14:15:41.068Z,6.00
2023-02-05T14:20:44.738Z,6.67
2023-02-05T14:26:11.927Z,6.30
2023-02-05T14:31:59.095Z,4.17
2023-02-05T14:36:58.508Z,5.90
2023-02-05T14:41:59.668Z,4.87
2023-02-05T14:47:20.714Z,5.70
2023-02-05T14:52:36.722Z,4.83
2023-02-05T14:57:43.841Z,4.80
2023-02-05T15:03:21.756Z,6.40
2023-02-05T15:08:30.608Z,5.80
2023-02-05T15:13:29.783Z,3.77
2023-02-05T15:18:31.495Z,6.30
2023-02-05T15:23:38.795Z,6.10
2023-02-05T15:28:42.218Z,6.30
2023-02-05T15:33:50.162Z,6.93
2023-02-05T15:38:58.100Z,7.13
2023-02-05T15:44:03.162Z,6.70
2023-02-05T15:49:09.967Z,5.93
2023-02-05T15:54:21.985Z,4.47
2023-02-05T15:59:27.231Z,5.35
2023-02-05T16:04:31.460Z,6.70
2023-02-05T16:09:34.902Z,8.13
2023-02-05T16:14:38.618Z,7.00
2023-02-05T16:19:54.436Z,6.55
2023-02-05T16:25:21.941Z,6.50
2023-02-05T16:30:32.060Z,8.43
2023-02-05T16:35:52.113Z,7.33
2023-02-05T16:40:57.359Z,6.03
2023-02-05T16:46:26.434Z,7.70
2023-02-05T16:51:48.362Z,8.23
2023-02-05T16:56:56.087Z,7.10
2023-02-05T17:01:55.643Z,5.73
2023-02-05T17:06:58.306Z,7.00
2023-02-05T17:12:43.081Z,8.73
2023-02-05T17:17:50.673Z,7.97
2023-02-05T17:23:14.945Z,8.03
2023-02-05T17:28:21.706Z,9.23
2023-02-05T17:33:23.165Z,10.30
2023-02-05T17:38:24.524Z,7.60
2023-02-05T17:43:25.687Z,8.33
2023-02-05T17:48:25.826Z,8.60
2023-02-05T17:53:33.668Z,8.53
2023-02-05T17:58:39.743Z,6.77
2023-02-05T18:03:39.951Z,7.38
2023-02-05T18:08:40.394Z,8.20
2023-02-05T18:13:48.860Z,8.32
2023-02-05T18:18:52.194Z,8.90
2023-02-05T18:23:53.739Z,6.72
2023-02-05T18:28:55.102Z,6.67
2023-02-05T18:33:54.613Z,6.37
2023-02-05T18:38:53.998Z,6.57
2023-02-05T18:44:00.620Z,7.40
2023-02-05T18:49:16.271Z,8.10
2023-02-05T18:54:45.816Z,7.70
2023-02-05T18:59:48.542Z,10.27
2023-02-05T19:04:52.272Z,9.07
2023-02-05T19:14:57.110Z,13.00
2023-02-05T19:20:00.185Z,8.83
2023-02-05T19:25:01.360Z,8.17
2023-02-05T19:30:04.928Z,9.47
2023-02-05T19:35:06.237Z,9.60
2023-02-05T19:40:06.761Z,12.20
2023-02-05T19:45:08.020Z,11.20
2023-02-05T19:50:07.211Z,13.10
2023-02-05T19:55:06.586Z,9.77
2023-02-05T20:00:08.083Z,11.10
2023-02-05T20:05:11.210Z,10.20
2023-02-05T20:10:10.404Z,12.13
2023-02-05T20:15:11.886Z,14.63
2023-02-05T20:20:24.892Z,11.30
2023-02-05T20:25:27.055Z,8.30
2023-02-05T20:30:45.151Z,10.13
2023-02-05T20:35:43.972Z,8.43
2023-02-05T20:40:42.796Z,14.00
2023-02-05T20:45:43.008Z,9.93
2023-02-05T20:50:41.798Z,10.37
2023-02-05T20:55:42.671Z,9.93
2023-02-05T21:00:42.980Z,19.10
2023-02-05T21:05:41.943Z,17.30
2023-02-05T21:10:40.889Z,19.40
2023-02-05T21:15:39.964Z,9.83
2023-02-05T21:20:40.274Z,10.67
2023-02-05T21:25:39.020Z,8.37
2023-02-05T21:30:38.354Z,13.20
2023-02-05T21:35:40.016Z,8.20
2023-02-05T21:40:39.304Z,6.53
2023-02-05T21:45:38.081Z,7.37
2023-02-05T21:50:40.855Z,7.27
2023-02-05T21:55:39.819Z,5.87
2023-02-05T22:00:38.621Z,7.23
2023-02-05T22:05:37.463Z,12.03
2023-02-05T22:10:37.589Z,8.77
2023-02-05T22:15:36.550Z,7.83
2023-02-05T22:20:35.651Z,7.77
2023-02-05T22:25:34.567Z,7.83
2023-02-05T22:30:35.344Z,8.40
2023-02-05T22:35:34.978Z,7.60
2023-02-05T22:40:34.487Z,6.50
2023-02-05T22:45:34.984Z,5.67
2023-02-05T22:50:37.946Z,5.23
2023-02-05T22:55:37.538Z,5.67
2023-02-05T23:00:37.792Z,7.03
2023-02-05T23:05:36.999Z,9.87
2023-02-05T23:10:35.918Z,8.07
2023-02-05T23:15:37.975Z,5.87
2023-02-05T23:20:36.703Z,5.10
2023-02-05T23:25:37.590Z,12.03
2023-02-05T23:30:38.137Z,7.73
2023-02-05T23:35:37.355Z,6.70
2023-02-05T23:40:36.206Z,5.47
2023-02-05T23:45:35.200Z,5.80
2023-02-05T23:50:36.175Z,4.63
2023-02-05T23:55:39.844Z,3.83
